sensor_id;sensor_type;location;lat;lon;timestamp;temperature;humidity
3948;DHT22;1988;48.694;9.562;2022-08-19T00:01:34;26.90;98.40
3948;DHT22;1988;48.694;9.562;2022-08-19T00:04:00;26.90;98.40
3948;DHT22;1988;48.694;9.562;2022-08-19T00:06:26;26.80;98.40
3948;DHT22;1988;48.694;9.562;2022-08-19T00:08:52;26.80;98.40
3948;DHT22;1988;48.694;9.562;2022-08-19T00:11:17;26.90;98.40
3948;DHT22;1988;48.694;9.562;2022-08-19T00:13:43;26.80;98.40
3948;DHT22;1988;48.694;9.562;2022-08-19T00:16:08;26.80;98.40
3948;DHT22;1988;48.694;9.562;2022-08-19T00:18:34;26.80;98.40
3948;DHT22;1988;48.694;9.562;2022-08-19T00:21:00;26.80;98.50
3948;DHT22;1988;48.694;9.562;2022-08-19T00:23:26;26.80;98.50
3948;DHT22;1988;48.694;9.562;2022-08-19T00:25:52;26.70;98.50
3948;DHT22;1988;48.694;9.562;2022-08-19T00:28:18;26.70;98.50
3948;DHT22;1988;48.694;9.562;2022-08-19T00:30:43;26.80;98.50
3948;DHT22;1988;48.694;9.562;2022-08-19T00:33:09;26.70;98.50
3948;DHT22;1988;48.694;9.562;2022-08-19T00:35:35;26.70;98.50
3948;DHT22;1988;48.694;9.562;2022-08-19T00:38:00;26.70;98.60
3948;DHT22;1988;48.694;9.562;2022-08-19T00:40:26;26.70;98.60
3948;DHT22;1988;48.694;9.562;2022-08-19T00:42:52;26.70;98.60
3948;DHT22;1988;48.694;9.562;2022-08-19T00:45:20;26.60;98.60
3948;DHT22;1988;48.694;9.562;2022-08-19T00:47:46;26.70;98.70
3948;DHT22;1988;48.694;9.562;2022-08-19T00:50:12;26.70;98.70
3948;DHT22;1988;48.694;9.562;2022-08-19T00:52:39;26.60;98.70
3948;DHT22;1988;48.694;9.562;2022-08-19T00:55:09;26.60;98.70
3948;DHT22;1988;48.694;9.562;2022-08-19T00:57:38;26.60;98.70
3948;DHT22;1988;48.694;9.562;2022-08-19T01:00:06;26.60;98.70
3948;DHT22;1988;48.694;9.562;2022-08-19T01:02:32;26.60;98.70
3948;DHT22;1988;48.694;9.562;2022-08-19T01:04:57;26.60;98.80
3948;DHT22;1988;48.694;9.562;2022-08-19T01:07:24;26.60;98.80
3948;DHT22;1988;48.694;9.562;2022-08-19T01:09:50;26.60;98.80
3948;DHT22;1988;48.694;9.562;2022-08-19T01:12:15;26.50;98.80
3948;DHT22;1988;48.694;9.562;2022-08-19T01:14:42;26.50;98.90
3948;DHT22;1988;48.694;9.562;2022-08-19T01:17:08;26.50;98.80
3948;DHT22;1988;48.694;9.562;2022-08-19T01:19:35;26.50;98.90
3948;DHT22;1988;48.694;9.562;2022-08-19T01:22:03;26.50;98.90
3948;DHT22;1988;48.694;9.562;2022-08-19T01:24:31;26.50;98.90
3948;DHT22;1988;48.694;9.562;2022-08-19T01:26:57;26.50;99.00
3948;DHT22;1988;48.694;9.562;2022-08-19T01:29:22;26.50;99.00
3948;DHT22;1988;48.694;9.562;2022-08-19T01:31:48;26.50;99.00
3948;DHT22;1988;48.694;9.562;2022-08-19T01:34:17;26.40;99.00
3948;DHT22;1988;48.694;9.562;2022-08-19T01:36:43;26.50;99.00
3948;DHT22;1988;48.694;9.562;2022-08-19T01:39:14;26.40;99.00
3948;DHT22;1988;48.694;9.562;2022-08-19T01:41:40;26.40;99.00
3948;DHT22;1988;48.694;9.562;2022-08-19T01:44:07;26.40;99.10
3948;DHT22;1988;48.694;9.562;2022-08-19T01:46:32;26.40;99.10
3948;DHT22;1988;48.694;9.562;2022-08-19T01:48:58;26.40;99.10
3948;DHT22;1988;48.694;9.562;2022-08-19T01:51:24;26.40;99.10
3948;DHT22;1988;48.694;9.562;2022-08-19T01:53:50;26.40;99.10
3948;DHT22;1988;48.694;9.562;2022-08-19T01:56:16;26.40;99.10
3948;DHT22;1988;48.694;9.562;2022-08-19T01:58:44;26.30;99.10
3948;DHT22;1988;48.694;9.562;2022-08-19T02:01:14;26.40;99.20
3948;DHT22;1988;48.694;9.562;2022-08-19T02:03:40;26.30;99.20
3948;DHT22;1988;48.694;9.562;2022-08-19T02:06:05;26.30;99.20
3948;DHT22;1988;48.694;9.562;2022-08-19T02:08:31;26.30;99.20
3948;DHT22;1988;48.694;9.562;2022-08-19T02:10:57;26.30;99.20
3948;DHT22;1988;48.694;9.562;2022-08-19T02:13:23;26.30;99.20
3948;DHT22;1988;48.694;9.562;2022-08-19T02:15:49;26.30;99.30
3948;DHT22;1988;48.694;9.562;2022-08-19T02:18:14;26.20;99.20
3948;DHT22;1988;48.694;9.562;2022-08-19T02:20:40;26.20;99.20
3948;DHT22;1988;48.694;9.562;2022-08-19T02:23:06;26.30;99.30
3948;DHT22;1988;48.694;9.562;2022-08-19T02:25:32;26.30;99.40
3948;DHT22;1988;48.694;9.562;2022-08-19T02:27:58;26.20;99.30
3948;DHT22;1988;48.694;9.562;2022-08-19T02:30:23;26.20;99.30
3948;DHT22;1988;48.694;9.562;2022-08-19T02:32:50;26.20;99.30
3948;DHT22;1988;48.694;9.562;2022-08-19T02:35:16;26.20;99.30
3948;DHT22;1988;48.694;9.562;2022-08-19T02:37:41;26.20;99.40
3948;DHT22;1988;48.694;9.562;2022-08-19T02:40:27;26.20;99.40
3948;DHT22;1988;48.694;9.562;2022-08-19T02:42:52;26.20;99.40
3948;DHT22;1988;48.694;9.562;2022-08-19T02:45:18;26.20;99.40
3948;DHT22;1988;48.694;9.562;2022-08-19T02:47:43;26.10;99.40
3948;DHT22;1988;48.694;9.562;2022-08-19T02:50:09;26.10;99.40
3948;DHT22;1988;48.694;9.562;2022-08-19T02:52:35;26.20;99.50
3948;DHT22;1988;48.694;9.562;2022-08-19T02:55:01;26.10;99.50
3948;DHT22;1988;48.694;9.562;2022-08-19T02:57:27;26.10;99.50
3948;DHT22;1988;48.694;9.562;2022-08-19T02:59:53;26.10;99.50
3948;DHT22;1988;48.694;9.562;2022-08-19T03:02:18;26.10;99.90
3948;DHT22;1988;48.694;9.562;2022-08-19T03:04:44;26.10;99.50
3948;DHT22;1988;48.694;9.562;2022-08-19T03:07:12;26.10;99.50
3948;DHT22;1988;48.694;9.562;2022-08-19T03:09:38;26.10;99.50
3948;DHT22;1988;48.694;9.562;2022-08-19T03:12:04;26.10;99.50
3948;DHT22;1988;48.694;9.562;2022-08-19T03:14:30;26.10;99.50
3948;DHT22;1988;48.694;9.562;2022-08-19T03:16:56;26.10;99.50
3948;DHT22;1988;48.694;9.562;2022-08-19T03:19:22;26.10;99.50
3948;DHT22;1988;48.694;9.562;2022-08-19T03:21:48;26.10;99.50
3948;DHT22;1988;48.694;9.562;2022-08-19T03:24:14;26.00;99.50
3948;DHT22;1988;48.694;9.562;2022-08-19T03:26:41;26.00;99.50
3948;DHT22;1988;48.694;9.562;2022-08-19T03:29:07;26.00;99.50
3948;DHT22;1988;48.694;9.562;2022-08-19T03:31:36;26.00;99.60
3948;DHT22;1988;48.694;9.562;2022-08-19T03:34:02;26.00;99.60
3948;DHT22;1988;48.694;9.562;2022-08-19T03:36:27;26.00;99.60
3948;DHT22;1988;48.694;9.562;2022-08-19T03:38:57;25.90;99.50
3948;DHT22;1988;48.694;9.562;2022-08-19T03:41:25;25.90;99.60
3948;DHT22;1988;48.694;9.562;2022-08-19T03:43:51;26.00;99.60
3948;DHT22;1988;48.694;9.562;2022-08-19T03:46:18;25.90;99.60
3948;DHT22;1988;48.694;9.562;2022-08-19T03:48:47;25.90;99.60
3948;DHT22;1988;48.694;9.562;2022-08-19T03:51:17;25.90;99.60
3948;DHT22;1988;48.694;9.562;2022-08-19T03:53:45;25.90;99.60
3948;DHT22;1988;48.694;9.562;2022-08-19T03:56:10;25.90;99.70
3948;DHT22;1988;48.694;9.562;2022-08-19T03:58:36;25.90;99.70
3948;DHT22;1988;48.694;9.562;2022-08-19T04:01:06;25.90;99.80
3948;DHT22;1988;48.694;9.562;2022-08-19T04:03:32;25.90;99.90
3948;DHT22;1988;48.694;9.562;2022-08-19T04:05:57;25.90;99.90
3948;DHT22;1988;48.694;9.562;2022-08-19T04:08:23;25.90;99.90
3948;DHT22;1988;48.694;9.562;2022-08-19T04:10:48;25.90;99.90
3948;DHT22;1988;48.694;9.562;2022-08-19T04:13:17;25.90;99.90
3948;DHT22;1988;48.694;9.562;2022-08-19T04:15:44;25.90;99.90
3948;DHT22;1988;48.694;9.562;2022-08-19T04:18:11;25.80;99.90
3948;DHT22;1988;48.694;9.562;2022-08-19T04:20:40;25.90;99.90
3948;DHT22;1988;48.694;9.562;2022-08-19T04:23:06;25.80;99.90
3948;DHT22;1988;48.694;9.562;2022-08-19T04:25:36;25.80;99.90
3948;DHT22;1988;48.694;9.562;2022-08-19T04:28:01;25.80;99.90
3948;DHT22;1988;48.694;9.562;2022-08-19T04:30:27;25.80;99.90
3948;DHT22;1988;48.694;9.562;2022-08-19T04:32:52;25.80;99.90
3948;DHT22;1988;48.694;9.562;2022-08-19T04:35:18;25.80;99.90
3948;DHT22;1988;48.694;9.562;2022-08-19T04:37:43;25.70;99.90
3948;DHT22;1988;48.694;9.562;2022-08-19T04:40:09;25.70;99.90
3948;DHT22;1988;48.694;9.562;2022-08-19T04:42:53;25.70;99.90
3948;DHT22;1988;48.694;9.562;2022-08-19T04:45:19;25.70;99.90
3948;DHT22;1988;48.694;9.562;2022-08-19T04:47:45;25.70;99.90
3948;DHT22;1988;48.694;9.562;2022-08-19T04:50:11;25.70;99.90
3948;DHT22;1988;48.694;9.562;2022-08-19T04:52:40;25.60;99.90
3948;DHT22;1988;48.694;9.562;2022-08-19T04:55:10;25.60;99.90
3948;DHT22;1988;48.694;9.562;2022-08-19T04:57:37;25.60;99.90
3948;DHT22;1988;48.694;9.562;2022-08-19T05:00:06;25.60;99.90
3948;DHT22;1988;48.694;9.562;2022-08-19T05:02:32;25.60;99.90
3948;DHT22;1988;48.694;9.562;2022-08-19T05:04:57;25.50;99.90
3948;DHT22;1988;48.694;9.562;2022-08-19T05:07:26;25.60;99.90
3948;DHT22;1988;48.694;9.562;2022-08-19T05:09:52;25.50;99.90
3948;DHT22;1988;48.694;9.562;2022-08-19T05:12:17;25.50;99.90
3948;DHT22;1988;48.694;9.562;2022-08-19T05:14:43;25.50;99.90
3948;DHT22;1988;48.694;9.562;2022-08-19T05:17:10;25.50;99.90
3948;DHT22;1988;48.694;9.562;2022-08-19T05:19:35;25.50;99.90
3948;DHT22;1988;48.694;9.562;2022-08-19T05:22:19;25.40;99.90
3948;DHT22;1988;48.694;9.562;2022-08-19T05:25:04;25.40;99.90
3948;DHT22;1988;48.694;9.562;2022-08-19T05:27:30;25.40;99.90
3948;DHT22;1988;48.694;9.562;2022-08-19T05:29:56;25.40;99.90
3948;DHT22;1988;48.694;9.562;2022-08-19T05:32:21;25.40;99.90
3948;DHT22;1988;48.694;9.562;2022-08-19T05:34:48;25.40;99.90
3948;DHT22;1988;48.694;9.562;2022-08-19T05:37:14;25.30;99.90
3948;DHT22;1988;48.694;9.562;2022-08-19T05:39:39;25.40;99.90
3948;DHT22;1988;48.694;9.562;2022-08-19T05:42:07;25.30;99.90
3948;DHT22;1988;48.694;9.562;2022-08-19T05:44:33;25.30;99.90
3948;DHT22;1988;48.694;9.562;2022-08-19T05:47:00;25.30;99.90
3948;DHT22;1988;48.694;9.562;2022-08-19T05:49:30;25.20;99.90
3948;DHT22;1988;48.694;9.562;2022-08-19T05:51:56;25.20;99.90
3948;DHT22;1988;48.694;9.562;2022-08-19T05:54:22;25.20;99.90
3948;DHT22;1988;48.694;9.562;2022-08-19T05:56:51;25.20;99.90
3948;DHT22;1988;48.694;9.562;2022-08-19T05:59:17;25.10;99.90
3948;DHT22;1988;48.694;9.562;2022-08-19T06:01:45;25.00;99.90
3948;DHT22;1988;48.694;9.562;2022-08-19T06:04:11;24.90;99.90
3948;DHT22;1988;48.694;9.562;2022-08-19T06:06:38;24.80;99.90
3948;DHT22;1988;48.694;9.562;2022-08-19T06:09:07;24.70;99.90
3948;DHT22;1988;48.694;9.562;2022-08-19T06:11:34;24.60;99.90
3948;DHT22;1988;48.694;9.562;2022-08-19T06:14:01;24.60;99.90
3948;DHT22;1988;48.694;9.562;2022-08-19T06:16:27;24.60;99.90
3948;DHT22;1988;48.694;9.562;2022-08-19T06:18:53;24.60;99.90
3948;DHT22;1988;48.694;9.562;2022-08-19T06:21:23;24.60;99.90
3948;DHT22;1988;48.694;9.562;2022-08-19T06:23:52;24.60;99.90
3948;DHT22;1988;48.694;9.562;2022-08-19T06:26:19;24.60;99.90
3948;DHT22;1988;48.694;9.562;2022-08-19T06:28:45;24.60;99.90
3948;DHT22;1988;48.694;9.562;2022-08-19T06:31:15;24.60;99.90
3948;DHT22;1988;48.694;9.562;2022-08-19T06:33:42;24.70;99.90
3948;DHT22;1988;48.694;9.562;2022-08-19T06:36:08;24.60;99.90
3948;DHT22;1988;48.694;9.562;2022-08-19T06:38:43;24.60;99.90
3948;DHT22;1988;48.694;9.562;2022-08-19T06:41:09;24.60;99.90
3948;DHT22;1988;48.694;9.562;2022-08-19T06:43:35;24.60;99.90
3948;DHT22;1988;48.694;9.562;2022-08-19T06:46:01;24.60;99.90
3948;DHT22;1988;48.694;9.562;2022-08-19T06:48:29;24.60;99.90
3948;DHT22;1988;48.694;9.562;2022-08-19T06:50:54;24.60;99.90
3948;DHT22;1988;48.694;9.562;2022-08-19T06:53:21;24.60;99.90
3948;DHT22;1988;48.694;9.562;2022-08-19T06:55:46;24.60;99.90
3948;DHT22;1988;48.694;9.562;2022-08-19T06:58:12;24.60;99.90
3948;DHT22;1988;48.694;9.562;2022-08-19T07:00:37;24.60;99.90
3948;DHT22;1988;48.694;9.562;2022-08-19T07:03:03;24.50;99.90
3948;DHT22;1988;48.694;9.562;2022-08-19T07:05:28;24.40;99.90
3948;DHT22;1988;48.694;9.562;2022-08-19T07:07:54;24.40;99.90
3948;DHT22;1988;48.694;9.562;2022-08-19T07:10:19;24.40;99.90
3948;DHT22;1988;48.694;9.562;2022-08-19T07:12:45;24.40;99.90
3948;DHT22;1988;48.694;9.562;2022-08-19T07:15:15;24.30;99.90
3948;DHT22;1988;48.694;9.562;2022-08-19T07:17:41;24.30;99.90
3948;DHT22;1988;48.694;9.562;2022-08-19T07:20:08;24.30;99.90
3948;DHT22;1988;48.694;9.562;2022-08-19T07:22:34;24.30;99.90
3948;DHT22;1988;48.694;9.562;2022-08-19T07:25:00;24.30;99.90
3948;DHT22;1988;48.694;9.562;2022-08-19T07:27:27;24.30;99.90
3948;DHT22;1988;48.694;9.562;2022-08-19T07:29:53;24.30;99.90
3948;DHT22;1988;48.694;9.562;2022-08-19T07:32:18;24.30;99.90
3948;DHT22;1988;48.694;9.562;2022-08-19T07:34:44;24.30;99.90
3948;DHT22;1988;48.694;9.562;2022-08-19T07:37:10;24.40;99.90
3948;DHT22;1988;48.694;9.562;2022-08-19T07:39:36;24.40;99.90
3948;DHT22;1988;48.694;9.562;2022-08-19T07:42:04;24.40;99.90
3948;DHT22;1988;48.694;9.562;2022-08-19T07:44:32;24.40;99.90
3948;DHT22;1988;48.694;9.562;2022-08-19T07:46:59;24.40;99.90
3948;DHT22;1988;48.694;9.562;2022-08-19T07:49:25;24.40;99.90
3948;DHT22;1988;48.694;9.562;2022-08-19T07:51:52;24.40;99.90
3948;DHT22;1988;48.694;9.562;2022-08-19T07:54:18;24.40;99.90
3948;DHT22;1988;48.694;9.562;2022-08-19T07:56:44;24.40;99.90
3948;DHT22;1988;48.694;9.562;2022-08-19T07:59:10;24.40;99.90
3948;DHT22;1988;48.694;9.562;2022-08-19T08:01:36;24.40;99.90
3948;DHT22;1988;48.694;9.562;2022-08-19T08:04:03;24.40;99.90
3948;DHT22;1988;48.694;9.562;2022-08-19T08:06:46;24.40;99.90
3948;DHT22;1988;48.694;9.562;2022-08-19T08:09:32;24.40;99.90
3948;DHT22;1988;48.694;9.562;2022-08-19T08:11:59;24.40;99.90
3948;DHT22;1988;48.694;9.562;2022-08-19T08:14:27;24.40;99.90
3948;DHT22;1988;48.694;9.562;2022-08-19T08:16:53;24.30;99.90
3948;DHT22;1988;48.694;9.562;2022-08-19T08:19:19;24.30;99.90
3948;DHT22;1988;48.694;9.562;2022-08-19T08:21:46;24.30;99.90
3948;DHT22;1988;48.694;9.562;2022-08-19T08:24:11;24.20;99.90
3948;DHT22;1988;48.694;9.562;2022-08-19T08:26:37;24.20;99.90
3948;DHT22;1988;48.694;9.562;2022-08-19T08:29:03;24.20;99.90
3948;DHT22;1988;48.694;9.562;2022-08-19T08:31:28;24.20;99.90
3948;DHT22;1988;48.694;9.562;2022-08-19T08:33:54;24.20;99.90
3948;DHT22;1988;48.694;9.562;2022-08-19T08:36:19;24.10;99.90
3948;DHT22;1988;48.694;9.562;2022-08-19T08:38:45;24.10;99.90
3948;DHT22;1988;48.694;9.562;2022-08-19T08:43:45;24.10;99.90
3948;DHT22;1988;48.694;9.562;2022-08-19T08:51:26;24.00;99.90
3948;DHT22;1988;48.694;9.562;2022-08-19T08:53:53;24.10;99.90
3948;DHT22;1988;48.694;9.562;2022-08-19T08:56:19;24.10;99.90
3948;DHT22;1988;48.694;9.562;2022-08-19T09:01:11;24.00;99.90
3948;DHT22;1988;48.694;9.562;2022-08-19T09:03:37;24.00;99.90
3948;DHT22;1988;48.694;9.562;2022-08-19T09:06:11;23.90;99.90
3948;DHT22;1988;48.694;9.562;2022-08-19T09:11:07;23.80;99.90
3948;DHT22;1988;48.694;9.562;2022-08-19T09:16:25;23.70;99.90
3948;DHT22;1988;48.694;9.562;2022-08-19T09:18:57;23.70;99.90
3948;DHT22;1988;48.694;9.562;2022-08-19T09:21:24;23.60;99.90
3948;DHT22;1988;48.694;9.562;2022-08-19T09:23:50;23.60;99.90
3948;DHT22;1988;48.694;9.562;2022-08-19T09:26:17;23.60;99.90
3948;DHT22;1988;48.694;9.562;2022-08-19T09:28:43;23.60;99.90
3948;DHT22;1988;48.694;9.562;2022-08-19T09:31:13;23.70;99.90
3948;DHT22;1988;48.694;9.562;2022-08-19T09:33:38;23.70;99.90
3948;DHT22;1988;48.694;9.562;2022-08-19T09:36:05;23.70;99.90
3948;DHT22;1988;48.694;9.562;2022-08-19T09:38:32;23.70;99.90
3948;DHT22;1988;48.694;9.562;2022-08-19T09:41:01;23.70;99.90
3948;DHT22;1988;48.694;9.562;2022-08-19T09:43:27;23.70;99.90
3948;DHT22;1988;48.694;9.562;2022-08-19T09:45:53;23.80;99.90
3948;DHT22;1988;48.694;9.562;2022-08-19T09:48:18;23.80;99.90
3948;DHT22;1988;48.694;9.562;2022-08-19T09:50:45;23.80;99.90
3948;DHT22;1988;48.694;9.562;2022-08-19T09:53:10;23.80;99.90
3948;DHT22;1988;48.694;9.562;2022-08-19T09:55:41;23.80;99.90
3948;DHT22;1988;48.694;9.562;2022-08-19T09:58:06;23.80;99.90
3948;DHT22;1988;48.694;9.562;2022-08-19T10:00:32;23.80;99.90
3948;DHT22;1988;48.694;9.562;2022-08-19T10:02:57;23.80;99.90
3948;DHT22;1988;48.694;9.562;2022-08-19T10:05:23;23.70;99.90
3948;DHT22;1988;48.694;9.562;2022-08-19T10:08:07;23.80;99.90
3948;DHT22;1988;48.694;9.562;2022-08-19T10:10:35;23.80;99.90
3948;DHT22;1988;48.694;9.562;2022-08-19T10:13:00;23.80;99.90
3948;DHT22;1988;48.694;9.562;2022-08-19T10:15:26;23.80;99.90
3948;DHT22;1988;48.694;9.562;2022-08-19T10:17:51;23.80;99.90
3948;DHT22;1988;48.694;9.562;2022-08-19T10:20:17;23.80;99.90
3948;DHT22;1988;48.694;9.562;2022-08-19T10:22:42;23.80;99.90
3948;DHT22;1988;48.694;9.562;2022-08-19T10:25:08;23.80;99.90
3948;DHT22;1988;48.694;9.562;2022-08-19T10:27:34;23.80;99.90
3948;DHT22;1988;48.694;9.562;2022-08-19T10:30:00;23.70;99.90
3948;DHT22;1988;48.694;9.562;2022-08-19T10:32:26;23.70;99.90
3948;DHT22;1988;48.694;9.562;2022-08-19T10:34:52;23.70;99.90
3948;DHT22;1988;48.694;9.562;2022-08-19T10:37:19;23.60;99.90
3948;DHT22;1988;48.694;9.562;2022-08-19T10:39:45;23.70;99.90
3948;DHT22;1988;48.694;9.562;2022-08-19T10:42:13;23.70;99.90
3948;DHT22;1988;48.694;9.562;2022-08-19T10:44:39;23.80;99.90
3948;DHT22;1988;48.694;9.562;2022-08-19T10:47:04;23.90;99.90
3948;DHT22;1988;48.694;9.562;2022-08-19T10:49:30;23.90;99.90
3948;DHT22;1988;48.694;9.562;2022-08-19T10:51:57;24.00;99.90
3948;DHT22;1988;48.694;9.562;2022-08-19T10:54:41;24.00;99.90
3948;DHT22;1988;48.694;9.562;2022-08-19T10:57:29;24.10;99.90
3948;DHT22;1988;48.694;9.562;2022-08-19T10:59:55;24.10;99.90
3948;DHT22;1988;48.694;9.562;2022-08-19T11:02:21;24.20;99.90
3948;DHT22;1988;48.694;9.562;2022-08-19T11:04:47;24.20;99.90
3948;DHT22;1988;48.694;9.562;2022-08-19T11:07:14;24.20;99.90
3948;DHT22;1988;48.694;9.562;2022-08-19T11:09:41;24.20;99.90
3948;DHT22;1988;48.694;9.562;2022-08-19T11:12:07;24.30;99.90
3948;DHT22;1988;48.694;9.562;2022-08-19T11:14:33;24.30;99.90
3948;DHT22;1988;48.694;9.562;2022-08-19T11:17:00;24.30;99.90
3948;DHT22;1988;48.694;9.562;2022-08-19T11:19:25;24.30;99.90
3948;DHT22;1988;48.694;9.562;2022-08-19T11:21:51;24.40;99.90
3948;DHT22;1988;48.694;9.562;2022-08-19T11:24:23;24.40;99.90
3948;DHT22;1988;48.694;9.562;2022-08-19T11:26:50;24.40;99.90
3948;DHT22;1988;48.694;9.562;2022-08-19T11:29:16;24.40;99.90
3948;DHT22;1988;48.694;9.562;2022-08-19T11:31:44;24.40;99.90
3948;DHT22;1988;48.694;9.562;2022-08-19T11:34:11;24.50;99.90
3948;DHT22;1988;48.694;9.562;2022-08-19T11:36:38;24.50;99.90
3948;DHT22;1988;48.694;9.562;2022-08-19T11:39:05;24.50;99.90
3948;DHT22;1988;48.694;9.562;2022-08-19T11:41:31;24.50;99.90
3948;DHT22;1988;48.694;9.562;2022-08-19T11:43:57;24.50;99.90
3948;DHT22;1988;48.694;9.562;2022-08-19T11:46:23;24.50;99.90
3948;DHT22;1988;48.694;9.562;2022-08-19T11:48:49;24.50;99.90
3948;DHT22;1988;48.694;9.562;2022-08-19T11:51:17;24.60;99.90
3948;DHT22;1988;48.694;9.562;2022-08-19T11:53:44;24.60;99.90
3948;DHT22;1988;48.694;9.562;2022-08-19T11:56:10;24.60;99.90
3948;DHT22;1988;48.694;9.562;2022-08-19T11:58:35;24.60;99.90
3948;DHT22;1988;48.694;9.562;2022-08-19T12:01:04;24.60;99.90
3948;DHT22;1988;48.694;9.562;2022-08-19T12:03:30;24.60;99.90
3948;DHT22;1988;48.694;9.562;2022-08-19T12:05:55;24.60;99.90
3948;DHT22;1988;48.694;9.562;2022-08-19T12:08:28;24.60;99.90
3948;DHT22;1988;48.694;9.562;2022-08-19T12:10:56;24.60;99.90
3948;DHT22;1988;48.694;9.562;2022-08-19T12:13:21;24.60;99.90
3948;DHT22;1988;48.694;9.562;2022-08-19T12:15:47;24.60;99.90
3948;DHT22;1988;48.694;9.562;2022-08-19T12:18:13;24.60;99.90
3948;DHT22;1988;48.694;9.562;2022-08-19T12:20:44;24.60;99.90
3948;DHT22;1988;48.694;9.562;2022-08-19T12:23:17;24.70;99.90
3948;DHT22;1988;48.694;9.562;2022-08-19T12:25:47;24.70;99.90
3948;DHT22;1988;48.694;9.562;2022-08-19T12:28:20;24.70;99.90
3948;DHT22;1988;48.694;9.562;2022-08-19T12:30:46;24.70;99.90
3948;DHT22;1988;48.694;9.562;2022-08-19T12:33:11;24.70;99.90
3948;DHT22;1988;48.694;9.562;2022-08-19T12:35:42;24.70;99.90
3948;DHT22;1988;48.694;9.562;2022-08-19T12:38:09;24.70;99.90
3948;DHT22;1988;48.694;9.562;2022-08-19T12:40:34;24.70;99.90
3948;DHT22;1988;48.694;9.562;2022-08-19T12:43:00;24.70;99.90
3948;DHT22;1988;48.694;9.562;2022-08-19T12:45:28;24.70;99.90
3948;DHT22;1988;48.694;9.562;2022-08-19T12:47:56;24.70;99.90
3948;DHT22;1988;48.694;9.562;2022-08-19T12:50:22;24.70;99.90
3948;DHT22;1988;48.694;9.562;2022-08-19T12:52:47;24.70;99.90
3948;DHT22;1988;48.694;9.562;2022-08-19T12:55:13;24.80;99.90
3948;DHT22;1988;48.694;9.562;2022-08-19T12:57:38;24.80;99.90
3948;DHT22;1988;48.694;9.562;2022-08-19T13:00:12;24.80;99.90
3948;DHT22;1988;48.694;9.562;2022-08-19T13:02:39;24.70;99.90
3948;DHT22;1988;48.694;9.562;2022-08-19T13:05:09;24.80;99.90
3948;DHT22;1988;48.694;9.562;2022-08-19T13:07:36;24.80;99.90
3948;DHT22;1988;48.694;9.562;2022-08-19T13:10:04;24.80;99.90
3948;DHT22;1988;48.694;9.562;2022-08-19T13:12:30;24.80;99.90
3948;DHT22;1988;48.694;9.562;2022-08-19T13:14:55;24.80;99.90
3948;DHT22;1988;48.694;9.562;2022-08-19T13:17:21;24.80;99.90
3948;DHT22;1988;48.694;9.562;2022-08-19T13:19:47;24.80;99.90
3948;DHT22;1988;48.694;9.562;2022-08-19T13:22:12;24.80;99.90
3948;DHT22;1988;48.694;9.562;2022-08-19T13:24:38;24.80;99.90
3948;DHT22;1988;48.694;9.562;2022-08-19T13:27:04;24.80;99.90
3948;DHT22;1988;48.694;9.562;2022-08-19T13:29:29;24.80;99.90
3948;DHT22;1988;48.694;9.562;2022-08-19T13:32:13;24.90;99.90
3948;DHT22;1988;48.694;9.562;2022-08-19T13:34:57;24.80;99.90
3948;DHT22;1988;48.694;9.562;2022-08-19T13:37:23;24.80;99.90
3948;DHT22;1988;48.694;9.562;2022-08-19T13:40:11;24.80;99.90
3948;DHT22;1988;48.694;9.562;2022-08-19T13:42:40;24.80;99.90
3948;DHT22;1988;48.694;9.562;2022-08-19T13:45:06;24.80;99.90
3948;DHT22;1988;48.694;9.562;2022-08-19T13:47:32;24.80;99.90
3948;DHT22;1988;48.694;9.562;2022-08-19T13:50:00;24.80;99.90
3948;DHT22;1988;48.694;9.562;2022-08-19T13:52:25;24.80;99.90
3948;DHT22;1988;48.694;9.562;2022-08-19T13:54:51;24.80;99.90
3948;DHT22;1988;48.694;9.562;2022-08-19T13:57:16;24.80;99.90
3948;DHT22;1988;48.694;9.562;2022-08-19T13:59:42;24.80;99.90
3948;DHT22;1988;48.694;9.562;2022-08-19T14:02:07;24.80;99.90
3948;DHT22;1988;48.694;9.562;2022-08-19T14:04:33;24.80;99.90
3948;DHT22;1988;48.694;9.562;2022-08-19T14:06:58;24.80;99.90
3948;DHT22;1988;48.694;9.562;2022-08-19T14:09:24;24.80;99.90
3948;DHT22;1988;48.694;9.562;2022-08-19T14:11:50;24.80;99.90
3948;DHT22;1988;48.694;9.562;2022-08-19T14:14:16;24.80;99.90
3948;DHT22;1988;48.694;9.562;2022-08-19T14:16:42;24.90;99.90
3948;DHT22;1988;48.694;9.562;2022-08-19T14:19:08;24.80;99.90
3948;DHT22;1988;48.694;9.562;2022-08-19T14:21:33;24.90;99.90
3948;DHT22;1988;48.694;9.562;2022-08-19T14:23:59;24.90;99.90
3948;DHT22;1988;48.694;9.562;2022-08-19T14:26:25;24.90;99.90
3948;DHT22;1988;48.694;9.562;2022-08-19T14:28:51;24.90;99.90
3948;DHT22;1988;48.694;9.562;2022-08-19T14:31:18;24.90;99.90
3948;DHT22;1988;48.694;9.562;2022-08-19T14:33:47;24.90;99.90
3948;DHT22;1988;48.694;9.562;2022-08-19T14:36:13;24.90;99.90
3948;DHT22;1988;48.694;9.562;2022-08-19T14:38:38;24.90;99.90
3948;DHT22;1988;48.694;9.562;2022-08-19T14:43:36;24.90;99.90
3948;DHT22;1988;48.694;9.562;2022-08-19T14:46:01;24.90;99.90
3948;DHT22;1988;48.694;9.562;2022-08-19T14:48:27;24.90;99.90
3948;DHT22;1988;48.694;9.562;2022-08-19T14:50:52;24.90;99.90
3948;DHT22;1988;48.694;9.562;2022-08-19T14:53:18;24.90;99.90
3948;DHT22;1988;48.694;9.562;2022-08-19T14:55:44;24.90;99.90
3948;DHT22;1988;48.694;9.562;2022-08-19T14:58:10;24.90;99.90
3948;DHT22;1988;48.694;9.562;2022-08-19T15:00:36;24.90;99.90
3948;DHT22;1988;48.694;9.562;2022-08-19T15:03:01;24.90;99.90
3948;DHT22;1988;48.694;9.562;2022-08-19T15:05:27;24.90;99.90
3948;DHT22;1988;48.694;9.562;2022-08-19T15:07:52;24.90;99.90
3948;DHT22;1988;48.694;9.562;2022-08-19T15:10:19;24.90;99.90
3948;DHT22;1988;48.694;9.562;2022-08-19T15:12:46;24.90;99.90
3948;DHT22;1988;48.694;9.562;2022-08-19T15:15:13;24.90;99.90
3948;DHT22;1988;48.694;9.562;2022-08-19T15:17:40;24.90;99.90
3948;DHT22;1988;48.694;9.562;2022-08-19T15:20:06;24.90;99.90
3948;DHT22;1988;48.694;9.562;2022-08-19T15:22:32;24.90;99.90
3948;DHT22;1988;48.694;9.562;2022-08-19T15:24:57;24.90;99.90
3948;DHT22;1988;48.694;9.562;2022-08-19T15:27:23;24.90;99.90
3948;DHT22;1988;48.694;9.562;2022-08-19T15:29:49;24.90;99.90
3948;DHT22;1988;48.694;9.562;2022-08-19T15:32:14;24.90;99.90
3948;DHT22;1988;48.694;9.562;2022-08-19T15:34:40;24.90;99.90
3948;DHT22;1988;48.694;9.562;2022-08-19T15:37:05;24.90;99.90
3948;DHT22;1988;48.694;9.562;2022-08-19T15:39:31;24.90;99.90
3948;DHT22;1988;48.694;9.562;2022-08-19T15:41:57;24.90;99.90
3948;DHT22;1988;48.694;9.562;2022-08-19T15:44:24;24.90;99.90
3948;DHT22;1988;48.694;9.562;2022-08-19T15:46:50;24.90;99.90
3948;DHT22;1988;48.694;9.562;2022-08-19T15:49:16;24.90;99.90
3948;DHT22;1988;48.694;9.562;2022-08-19T15:51:43;24.90;99.90
3948;DHT22;1988;48.694;9.562;2022-08-19T15:54:10;24.90;99.90
3948;DHT22;1988;48.694;9.562;2022-08-19T15:56:36;24.90;99.90
3948;DHT22;1988;48.694;9.562;2022-08-19T15:59:20;24.90;99.90
3948;DHT22;1988;48.694;9.562;2022-08-19T16:02:05;24.90;99.90
3948;DHT22;1988;48.694;9.562;2022-08-19T16:04:50;24.90;99.90
3948;DHT22;1988;48.694;9.562;2022-08-19T16:07:34;24.90;99.90
3948;DHT22;1988;48.694;9.562;2022-08-19T16:09:59;24.90;99.90
3948;DHT22;1988;48.694;9.562;2022-08-19T16:12:25;24.90;99.90
3948;DHT22;1988;48.694;9.562;2022-08-19T16:14:53;24.90;99.90
3948;DHT22;1988;48.694;9.562;2022-08-19T16:17:19;24.90;99.90
3948;DHT22;1988;48.694;9.562;2022-08-19T16:19:44;24.90;99.90